createdAt,value
2022-11-05T00:01:42.523Z,100301.34
2022-11-05T00:05:06.704Z,100302.66
2022-11-05T00:08:30.813Z,100296.16
2022-11-05T00:11:55.393Z,100307.34
2022-11-05T00:15:19.375Z,100308.41
2022-11-05T00:18:24.865Z,100297.00
2022-11-05T00:21:49.206Z,100293.28
2022-11-05T00:25:13.117Z,100297.06
2022-11-05T00:28:18.391Z,100304.06
2022-11-05T00:31:24.303Z,100307.28
2022-11-05T00:34:29.939Z,100304.19
2022-11-05T00:37:36.518Z,100308.16
2022-11-05T00:40:42.163Z,100305.72
2022-11-05T00:44:06.266Z,100310.41
2022-11-05T00:47:30.330Z,100309.47
2022-11-05T00:50:36.246Z,100305.81
2022-11-05T00:53:41.818Z,100312.31
2022-11-05T00:56:47.468Z,100314.16
2022-11-05T00:59:53.027Z,100315.09
2022-11-05T01:03:02.027Z,100319.47
2022-11-05T01:06:13.434Z,100310.88
2022-11-05T01:09:18.928Z,100321.09
2022-11-05T01:12:24.244Z,100319.59
2022-11-05T01:15:29.690Z,100327.78
2022-11-05T01:18:37.714Z,100317.34
2022-11-05T01:21:43.482Z,100317.13
2022-11-05T01:24:48.587Z,100324.22
2022-11-05T01:27:53.841Z,100323.88
2022-11-05T01:30:59.517Z,100322.13
2022-11-05T01:34:05.371Z,100338.31
2022-11-05T01:37:11.059Z,100339.72
2022-11-05T01:40:22.835Z,100339.16
2022-11-05T01:43:54.687Z,100343.75
2022-11-05T01:47:00.368Z,100346.66
2022-11-05T01:50:11.972Z,100354.84
2022-11-05T01:53:39.593Z,100352.91
2022-11-05T01:56:56.885Z,100348.94
2022-11-05T02:00:02.880Z,100359.69
2022-11-05T02:03:19.869Z,100349.53
2022-11-05T02:06:28.050Z,100355.88
2022-11-05T02:09:52.623Z,100355.53
2022-11-05T02:12:58.357Z,100360.16
2022-11-05T02:16:24.610Z,100361.31
2022-11-05T02:19:57.295Z,100357.88
2022-11-05T02:23:24.799Z,100354.19
2022-11-05T02:26:58.519Z,100358.53
2022-11-05T02:30:25.847Z,100363.59
2022-11-05T02:33:47.208Z,100368.13
2022-11-05T02:37:05.794Z,100371.16
2022-11-05T02:40:31.856Z,100377.38
2022-11-05T02:44:06.387Z,100374.50
2022-11-05T02:47:34.153Z,100380.03
2022-11-05T02:51:17.521Z,100390.25
2022-11-05T02:54:42.355Z,100391.38
2022-11-05T02:57:48.391Z,100398.91
2022-11-05T03:00:56.536Z,100404.31
2022-11-05T03:04:07.274Z,100410.59
2022-11-05T03:07:36.025Z,100412.00
2022-11-05T03:10:55.163Z,100409.28
2022-11-05T03:14:11.278Z,100411.91
2022-11-05T03:18:15.059Z,100413.78
2022-11-05T03:21:44.320Z,100414.59
2022-11-05T03:24:55.851Z,100424.06
2022-11-05T03:28:06.136Z,100430.03
2022-11-05T03:31:14.666Z,100433.53
2022-11-05T03:34:27.141Z,100443.56
2022-11-05T03:37:36.698Z,100448.75
2022-11-05T03:40:43.625Z,100451.19
2022-11-05T03:43:53.878Z,100451.97
2022-11-05T03:47:07.301Z,100453.91
2022-11-05T03:50:21.865Z,100453.78
2022-11-05T03:53:43.663Z,100451.25
2022-11-05T03:57:15.537Z,100452.66
2022-11-05T04:00:22.347Z,100453.66
2022-11-05T04:03:28.322Z,100453.50
2022-11-05T04:06:52.292Z,100448.56
2022-11-05T04:10:16.611Z,100459.13
2022-11-05T04:13:25.047Z,100470.03
2022-11-05T04:16:49.327Z,100469.59
2022-11-05T04:20:13.382Z,100471.41
2022-11-05T04:23:37.401Z,100473.94
2022-11-05T04:26:44.684Z,100474.91
2022-11-05T04:30:08.964Z,100479.53
2022-11-05T04:33:16.639Z,100484.91
2022-11-05T04:36:22.378Z,100482.06
2022-11-05T04:39:27.539Z,100481.75
2022-11-05T04:42:33.117Z,100488.28
2022-11-05T04:45:39.077Z,100484.47
2022-11-05T04:48:43.936Z,100493.09
2022-11-05T04:51:49.330Z,100497.94
2022-11-05T04:54:54.832Z,100497.19
2022-11-05T04:58:00.476Z,100500.34
2022-11-05T05:01:06.415Z,100497.34
2022-11-05T05:04:12.114Z,100505.06
2022-11-05T05:07:17.357Z,100507.69
2022-11-05T05:10:23.025Z,100509.75
2022-11-05T05:13:28.323Z,100519.41
2022-11-05T05:16:33.844Z,100526.13
2022-11-05T05:19:57.982Z,100524.72
2022-11-05T05:23:04.205Z,100533.00
2022-11-05T05:26:09.781Z,100534.31
2022-11-05T05:29:16.717Z,100530.16
2022-11-05T05:32:23.917Z,100536.97
2022-11-05T05:35:29.350Z,100550.56
2022-11-05T05:38:34.879Z,100550.38
2022-11-05T05:41:40.419Z,100558.75
2022-11-05T05:44:45.634Z,100559.25
2022-11-05T05:47:51.008Z,100562.34
2022-11-05T05:51:03.868Z,100567.22
2022-11-05T05:54:12.028Z,100573.03
2022-11-05T05:57:17.522Z,100571.41
2022-11-05T06:00:23.006Z,100565.03
2022-11-05T06:03:28.596Z,100564.66
2022-11-05T06:06:33.691Z,100566.16
2022-11-05T06:09:39.086Z,100573.84
2022-11-05T06:12:44.497Z,100566.59
2022-11-05T06:15:50.304Z,100578.34
2022-11-05T06:18:55.290Z,100583.66
2022-11-05T06:22:00.691Z,100579.28
2022-11-05T06:25:07.292Z,100582.75
2022-11-05T06:28:12.831Z,100595.94
2022-11-05T06:31:18.441Z,100596.09
2022-11-05T06:34:23.581Z,100595.47
2022-11-05T06:37:29.223Z,100596.50
2022-11-05T06:40:34.633Z,100592.81
2022-11-05T06:43:40.333Z,100607.06
2022-11-05T06:46:48.456Z,100609.22
2022-11-05T06:49:54.546Z,100616.97
2022-11-05T06:53:03.980Z,100615.50
2022-11-05T06:56:10.074Z,100628.94
2022-11-05T06:59:16.113Z,100642.03
2022-11-05T07:02:21.409Z,100640.56
2022-11-05T07:05:27.201Z,100642.91
2022-11-05T07:08:34.502Z,100649.00
2022-11-05T07:11:39.632Z,100655.66
2022-11-05T07:14:45.088Z,100656.41
2022-11-05T07:17:50.762Z,100659.06
2022-11-05T07:20:56.203Z,100671.63
2022-11-05T07:24:01.937Z,100682.78
2022-11-05T07:27:07.452Z,100694.28
2022-11-05T07:30:12.951Z,100687.09
2022-11-05T07:33:18.023Z,100695.09
2022-11-05T07:36:23.672Z,100700.81
2022-11-05T07:39:29.477Z,100708.56
2022-11-05T07:42:35.865Z,100711.16
2022-11-05T07:45:41.470Z,100713.44
2022-11-05T07:48:46.868Z,100710.31
2022-11-05T07:51:52.567Z,100720.97
2022-11-05T07:54:57.815Z,100711.00
2022-11-05T07:58:04.906Z,100720.41
2022-11-05T08:01:10.615Z,100725.66
2022-11-05T08:04:16.514Z,100727.06
2022-11-05T08:07:22.327Z,100729.41
2022-11-05T08:10:29.076Z,100730.19
2022-11-05T08:13:36.086Z,100737.72
2022-11-05T08:16:42.016Z,100742.63
2022-11-05T08:19:47.377Z,100748.38
2022-11-05T08:22:52.809Z,100753.25
2022-11-05T08:25:58.997Z,100753.81
2022-11-05T08:29:04.085Z,100754.75
2022-11-05T08:32:09.616Z,100766.63
2022-11-05T08:35:15.120Z,100771.22
2022-11-05T08:38:20.720Z,100768.75
2022-11-05T08:41:26.284Z,100766.63
2022-11-05T08:44:31.301Z,100767.28
2022-11-05T08:47:36.414Z,100768.44
2022-11-05T08:50:43.005Z,100772.09
2022-11-05T08:53:48.724Z,100769.53
2022-11-05T08:56:54.056Z,100772.78
2022-11-05T08:59:59.612Z,100780.56
2022-11-05T09:03:07.190Z,100782.81
2022-11-05T09:06:12.741Z,100782.56
2022-11-05T09:09:18.082Z,100779.41
2022-11-05T09:12:23.377Z,100784.75
2022-11-05T09:15:29.942Z,100785.63
2022-11-05T09:18:35.401Z,100790.50
2022-11-05T09:21:40.512Z,100792.38
2022-11-05T09:24:45.603Z,100806.13
2022-11-05T09:27:50.887Z,100808.91
2022-11-05T09:30:56.001Z,100811.41
2022-11-05T09:34:01.240Z,100801.84
2022-11-05T09:37:06.577Z,100812.47
2022-11-05T09:40:17.612Z,100809.28
2022-11-05T09:43:31.733Z,100812.22
2022-11-05T09:46:57.228Z,100810.31
2022-11-05T09:50:09.469Z,100808.63
2022-11-05T09:53:18.520Z,100807.94
2022-11-05T09:56:28.774Z,100814.47
2022-11-05T09:59:51.752Z,100821.53
2022-11-05T10:03:19.521Z,100822.75
2022-11-05T10:06:27.728Z,100831.81
2022-11-05T10:09:45.659Z,100829.44
2022-11-05T10:12:55.425Z,100837.00
2022-11-05T10:16:20.838Z,100834.53
2022-11-05T10:19:37.496Z,100830.78
2022-11-05T10:22:48.287Z,100841.81
2022-11-05T10:26:01.341Z,100836.38
2022-11-05T10:29:06.786Z,100841.50
2022-11-05T10:32:36.185Z,100833.56
2022-11-05T10:35:49.627Z,100827.22
2022-11-05T10:39:00.871Z,100829.47
2022-11-05T10:42:27.995Z,100832.69
2022-11-05T10:46:20.607Z,100833.53
2022-11-05T10:49:40.260Z,100833.06
2022-11-05T10:53:01.848Z,100834.44
2022-11-05T10:56:36.656Z,100844.09
2022-11-05T10:59:42.252Z,100831.50
2022-11-05T11:02:56.278Z,100822.06
2022-11-05T11:06:05.433Z,100827.47
2022-11-05T11:09:22.241Z,100817.22
2022-11-05T11:12:40.882Z,100823.97
2022-11-05T11:15:51.017Z,100828.31
2022-11-05T11:19:00.907Z,100825.34
2022-11-05T11:22:06.540Z,100825.09
2022-11-05T11:25:30.469Z,100822.66
2022-11-05T11:28:46.540Z,100821.31
2022-11-05T11:31:56.485Z,100821.59
2022-11-05T11:35:03.395Z,100831.81
2022-11-05T11:38:16.866Z,100834.22
2022-11-05T11:41:31.140Z,100833.72
2022-11-05T11:44:46.493Z,100834.75
2022-11-05T11:47:52.385Z,100830.47
2022-11-05T11:50:59.774Z,100831.00
2022-11-05T11:54:05.979Z,100831.00
2022-11-05T11:57:27.292Z,100837.50
2022-11-05T12:00:41.767Z,100833.19
2022-11-05T12:04:15.101Z,100833.44
2022-11-05T12:07:20.896Z,100842.84
2022-11-05T12:10:52.221Z,100842.84
2022-11-05T12:14:06.675Z,100830.75
2022-11-05T12:17:52.654Z,100835.31
2022-11-05T12:21:50.886Z,100828.06
2022-11-05T12:25:28.017Z,100831.56
2022-11-05T12:32:31.357Z,100825.91
2022-11-05T12:36:03.243Z,100830.97
2022-11-05T12:39:33.114Z,100822.34
2022-11-05T12:43:00.070Z,100825.63
2022-11-05T12:46:53.806Z,100821.28
2022-11-05T12:50:21.757Z,100819.56
2022-11-05T12:53:32.547Z,100824.41
2022-11-05T12:56:49.455Z,100824.69
2022-11-05T13:00:03.142Z,100822.75
2022-11-05T13:03:26.451Z,100822.72
2022-11-05T13:06:41.568Z,100829.53
2022-11-05T13:09:56.068Z,100821.69
2022-11-05T13:13:13.994Z,100830.00
2022-11-05T13:16:25.625Z,100824.16
2022-11-05T13:19:45.753Z,100826.88
2022-11-05T13:23:16.687Z,100820.63
2022-11-05T13:26:33.839Z,100823.03
2022-11-05T13:29:48.534Z,100822.97
2022-11-05T13:33:00.336Z,100825.38
2022-11-05T13:36:31.188Z,100817.03
2022-11-05T13:39:54.864Z,100822.13
2022-11-05T13:43:24.985Z,100829.69
2022-11-05T13:46:39.303Z,100825.34
2022-11-05T13:50:31.704Z,100818.66
2022-11-05T13:54:04.526Z,100826.25
2022-11-05T13:57:47.185Z,100826.75
2022-11-05T14:01:15.774Z,100821.97
2022-11-05T14:04:44.175Z,100824.41
2022-11-05T14:07:50.246Z,100834.09
2022-11-05T14:11:05.354Z,100832.53
2022-11-05T14:14:29.244Z,100835.78
2022-11-05T14:18:02.054Z,100833.06
2022-11-05T14:21:27.586Z,100839.25
2022-11-05T14:24:40.756Z,100843.59
2022-11-05T14:27:49.551Z,100843.31
2022-11-05T14:30:54.763Z,100842.28
2022-11-05T14:34:11.779Z,100839.59
2022-11-05T14:37:40.537Z,100849.28
2022-11-05T14:40:47.945Z,100849.03
2022-11-05T14:44:06.149Z,100847.69
2022-11-05T14:47:21.892Z,100857.94
2022-11-05T14:50:36.480Z,100856.84
2022-11-05T14:53:42.264Z,100858.47
2022-11-05T14:57:00.229Z,100858.47
2022-11-05T15:00:28.684Z,100862.53
2022-11-05T15:03:47.044Z,100858.50
2022-11-05T15:07:25.423Z,100864.94
2022-11-05T15:10:35.830Z,100864.91
2022-11-05T15:13:51.638Z,100874.34
2022-11-05T15:17:09.601Z,100875.94
2022-11-05T15:20:20.630Z,100882.63
2022-11-05T15:23:36.305Z,100878.03
2022-11-05T15:27:02.894Z,100879.94
2022-11-05T15:30:16.698Z,100876.13
2022-11-05T15:33:23.617Z,100883.88
2022-11-05T15:36:32.572Z,100886.81
2022-11-05T15:39:42.052Z,100884.28
2022-11-05T15:43:07.502Z,100884.72
2022-11-05T15:46:17.387Z,100887.06
2022-11-05T15:49:23.227Z,100884.66
2022-11-05T15:52:36.716Z,100887.53
2022-11-05T15:55:57.391Z,100885.84
2022-11-05T15:59:04.609Z,100888.81
2022-11-05T16:02:33.491Z,100885.47
2022-11-05T16:05:47.829Z,100888.66
2022-11-05T16:08:53.421Z,100883.41
2022-11-05T16:12:20.976Z,100889.75
2022-11-05T16:15:32.460Z,100896.38
2022-11-05T16:18:40.457Z,100896.34
2022-11-05T16:21:55.110Z,100903.56
2022-11-05T16:25:00.330Z,100902.13
2022-11-05T16:28:28.133Z,100903.41
2022-11-05T16:31:33.632Z,100914.25
2022-11-05T16:34:42.098Z,100912.56
2022-11-05T16:37:52.072Z,100915.75
2022-11-05T16:40:59.469Z,100913.19
2022-11-05T16:44:04.916Z,100925.91
2022-11-05T16:47:10.309Z,100924.72
2022-11-05T16:50:27.259Z,100930.00
2022-11-05T16:53:33.073Z,100933.59
2022-11-05T16:56:40.361Z,100939.50
2022-11-05T16:59:45.955Z,100935.66
2022-11-05T17:02:52.459Z,100938.00
2022-11-05T17:05:57.664Z,100945.63
2022-11-05T17:09:03.122Z,100948.41
2022-11-05T17:12:13.884Z,100950.53
2022-11-05T17:15:20.893Z,100958.78
2022-11-05T17:18:26.584Z,100961.94
2022-11-05T17:21:33.728Z,100968.28
2022-11-05T17:24:39.294Z,100970.78
2022-11-05T17:27:44.925Z,100976.69
2022-11-05T17:30:53.176Z,100978.94
2022-11-05T17:34:00.380Z,100978.88
2022-11-05T17:37:05.892Z,100981.13
2022-11-05T17:40:17.846Z,100977.50
2022-11-05T17:43:23.402Z,100982.28
2022-11-05T17:46:28.681Z,100992.13
2022-11-05T17:49:34.713Z,100995.50
2022-11-05T17:52:40.106Z,100998.66
2022-11-05T17:55:47.202Z,101004.16
2022-11-05T17:58:55.319Z,100999.72
2022-11-05T18:02:01.302Z,100995.34
2022-11-05T18:05:07.734Z,101009.31
2022-11-05T18:08:13.309Z,101014.19
2022-11-05T18:11:18.851Z,101012.00
2022-11-05T18:14:25.165Z,101016.06
2022-11-05T18:17:30.817Z,101030.59
2022-11-05T18:20:36.365Z,101024.19
2022-11-05T18:23:42.397Z,101026.06
2022-11-05T18:26:48.148Z,101031.19
2022-11-05T18:29:55.106Z,101029.00
2022-11-05T18:33:00.260Z,101035.38
2022-11-05T18:36:06.280Z,101037.81
2022-11-05T18:39:12.699Z,101040.84
2022-11-05T18:42:21.199Z,101043.81
2022-11-05T18:45:29.690Z,101047.03
2022-11-05T18:48:36.939Z,101047.25
2022-11-05T18:51:43.087Z,101053.06
2022-11-05T18:54:49.619Z,101050.19
2022-11-05T18:57:54.812Z,101058.28
2022-11-05T19:01:06.301Z,101059.00
2022-11-05T19:04:12.672Z,101060.63
2022-11-05T19:07:19.632Z,101058.34
2022-11-05T19:10:25.399Z,101071.75
2022-11-05T19:13:31.127Z,101069.56
2022-11-05T19:16:36.790Z,101077.78
2022-11-05T19:19:42.432Z,101082.19
2022-11-05T19:22:47.934Z,101078.88
2022-11-05T19:25:55.348Z,101086.88
2022-11-05T19:29:02.590Z,101089.53
2022-11-05T19:32:09.902Z,101088.22
2022-11-05T19:35:15.645Z,101100.50
2022-11-05T19:38:21.031Z,101099.41
2022-11-05T19:41:27.179Z,101100.72
2022-11-05T19:44:32.677Z,101103.25
2022-11-05T19:47:38.368Z,101110.72
2022-11-05T19:50:43.931Z,101116.75
2022-11-05T19:53:51.754Z,101118.16
2022-11-05T19:56:57.545Z,101112.44
2022-11-05T20:00:05.216Z,101124.81
2022-11-05T20:03:16.168Z,101135.34
2022-11-05T20:06:25.975Z,101141.25
2022-11-05T20:09:31.401Z,101146.06
2022-11-05T20:12:36.679Z,101149.56
2022-11-05T20:15:42.315Z,101148.53
2022-11-05T20:18:48.156Z,101153.28
2022-11-05T20:21:53.751Z,101155.50
2022-11-05T20:24:59.238Z,101148.59
2022-11-05T20:28:05.544Z,101156.00
2022-11-05T20:31:14.246Z,101159.47
2022-11-05T20:34:19.824Z,101154.41
2022-11-05T20:37:25.043Z,101151.78
2022-11-05T20:40:30.264Z,101156.28
2022-11-05T20:43:36.537Z,101160.50
2022-11-05T20:46:42.384Z,101170.97
2022-11-05T20:49:47.688Z,101175.19
2022-11-05T20:52:53.086Z,101177.34
2022-11-05T20:56:00.551Z,101184.09
2022-11-05T20:59:09.347Z,101178.56
2022-11-05T21:02:14.890Z,101186.38
2022-11-05T21:05:20.706Z,101185.31
2022-11-05T21:08:29.004Z,101185.94
2022-11-05T21:11:54.924Z,101194.06
2022-11-05T21:15:00.851Z,101194.25
2022-11-05T21:18:06.374Z,101195.97
2022-11-05T21:21:16.765Z,101197.97
2022-11-05T21:24:22.148Z,101199.50
2022-11-05T21:27:27.664Z,101195.34
2022-11-05T21:30:33.793Z,101195.28
2022-11-05T21:33:40.763Z,101195.56
2022-11-05T21:36:47.586Z,101202.25
2022-11-05T21:39:52.640Z,101209.75
2022-11-05T21:42:57.829Z,101200.34
2022-11-05T21:46:04.849Z,101216.00
2022-11-05T21:49:10.540Z,101211.28
2022-11-05T21:52:34.896Z,101223.88
2022-11-05T21:56:00.365Z,101227.66
2022-11-05T21:59:24.773Z,101225.00
2022-11-05T22:02:30.966Z,101226.94
2022-11-05T22:05:36.458Z,101239.25
2022-11-05T22:08:41.889Z,101235.34
2022-11-05T22:11:47.648Z,101238.50
2022-11-05T22:14:53.469Z,101235.09
2022-11-05T22:17:59.061Z,101232.16
2022-11-05T22:21:04.250Z,101239.41
2022-11-05T22:24:09.712Z,101241.44
2022-11-05T22:27:18.807Z,101243.69
2022-11-05T22:30:24.322Z,101243.88
2022-11-05T22:33:29.467Z,101242.91
2022-11-05T22:36:35.062Z,101244.13
2022-11-05T22:39:40.705Z,101248.41
2022-11-05T22:42:46.480Z,101247.38
2022-11-05T22:45:51.971Z,101246.78
2022-11-05T22:48:58.704Z,101250.31
2022-11-05T22:52:04.797Z,101251.91
2022-11-05T22:55:11.001Z,101253.13
2022-11-05T22:58:16.106Z,101252.13
2022-11-05T23:01:22.707Z,101256.84
2022-11-05T23:04:28.687Z,101258.09
2022-11-05T23:07:52.945Z,101269.34
2022-11-05T23:11:16.395Z,101278.16
2022-11-05T23:14:21.586Z,101286.75
2022-11-05T23:17:45.848Z,101282.38
2022-11-05T23:21:09.494Z,101282.25
2022-11-05T23:24:14.762Z,101288.97
2022-11-05T23:27:20.164Z,101284.69
2022-11-05T23:30:27.761Z,101279.78
2022-11-05T23:33:35.230Z,101286.94
2022-11-05T23:36:59.269Z,101280.63
2022-11-05T23:40:08.288Z,101279.19
2022-11-05T23:43:32.148Z,101283.66
2022-11-05T23:46:56.199Z,101285.31
2022-11-05T23:50:01.260Z,101291.84
2022-11-05T23:53:07.951Z,101297.97
2022-11-05T23:56:15.738Z,101293.28
2022-11-05T23:59:21.488Z,101299.63
